sensor_id;sensor_type;location;lat;lon;timestamp;P1;durP1;ratioP1;P2;durP2;ratioP2
9224;SDS011;4647;48.072;11.616;2022-11-15T00:00:30;8.67;;;5.77;;
9224;SDS011;4647;48.072;11.616;2022-11-15T00:02:57;6.70;;;5.27;;
9224;SDS011;4647;48.072;11.616;2022-11-15T00:05:24;6.03;;;5.23;;
9224;SDS011;4647;48.072;11.616;2022-11-15T00:07:51;5.37;;;4.87;;
9224;SDS011;4647;48.072;11.616;2022-11-15T00:10:19;6.60;;;5.07;;
9224;SDS011;4647;48.072;11.616;2022-11-15T00:12:46;6.30;;;5.23;;
9224;SDS011;4647;48.072;11.616;2022-11-15T00:15:12;8.07;;;5.97;;
9224;SDS011;4647;48.072;11.616;2022-11-15T00:17:39;5.70;;;4.90;;
9224;SDS011;4647;48.072;11.616;2022-11-15T00:20:07;6.67;;;5.30;;
9224;SDS011;4647;48.072;11.616;2022-11-15T00:22:34;6.30;;;5.03;;
9224;SDS011;4647;48.072;11.616;2022-11-15T00:25:01;7.97;;;5.30;;
9224;SDS011;4647;48.072;11.616;2022-11-15T00:27:29;7.10;;;5.67;;
9224;SDS011;4647;48.072;11.616;2022-11-15T00:29:56;5.63;;;5.07;;
9224;SDS011;4647;48.072;11.616;2022-11-15T00:32:23;8.60;;;5.33;;
9224;SDS011;4647;48.072;11.616;2022-11-15T00:34:50;6.40;;;5.07;;
9224;SDS011;4647;48.072;11.616;2022-11-15T00:37:17;6.10;;;5.00;;
9224;SDS011;4647;48.072;11.616;2022-11-15T00:39:43;6.17;;;5.00;;
9224;SDS011;4647;48.072;11.616;2022-11-15T00:42:10;4.60;;;4.07;;
9224;SDS011;4647;48.072;11.616;2022-11-15T00:44:38;6.37;;;4.60;;
9224;SDS011;4647;48.072;11.616;2022-11-15T00:47:05;5.57;;;4.70;;
9224;SDS011;4647;48.072;11.616;2022-11-15T00:49:32;5.60;;;4.23;;
9224;SDS011;4647;48.072;11.616;2022-11-15T00:51:59;5.50;;;4.30;;
9224;SDS011;4647;48.072;11.616;2022-11-15T00:54:26;5.23;;;4.53;;
9224;SDS011;4647;48.072;11.616;2022-11-15T00:56:52;5.57;;;4.53;;
9224;SDS011;4647;48.072;11.616;2022-11-15T00:59:19;6.90;;;4.70;;
9224;SDS011;4647;48.072;11.616;2022-11-15T01:01:47;5.93;;;4.80;;
9224;SDS011;4647;48.072;11.616;2022-11-15T01:04:14;5.90;;;4.63;;
9224;SDS011;4647;48.072;11.616;2022-11-15T01:06:41;4.87;;;4.03;;
9224;SDS011;4647;48.072;11.616;2022-11-15T01:09:08;5.07;;;4.50;;
9224;SDS011;4647;48.072;11.616;2022-11-15T01:11:35;4.90;;;4.27;;
9224;SDS011;4647;48.072;11.616;2022-11-15T01:14:02;4.97;;;4.03;;
9224;SDS011;4647;48.072;11.616;2022-11-15T01:16:28;4.40;;;3.60;;
9224;SDS011;4647;48.072;11.616;2022-11-15T01:18:56;4.37;;;3.80;;
9224;SDS011;4647;48.072;11.616;2022-11-15T01:21:23;4.73;;;3.87;;
9224;SDS011;4647;48.072;11.616;2022-11-15T01:23:52;4.00;;;3.53;;
9224;SDS011;4647;48.072;11.616;2022-11-15T01:26:19;5.07;;;4.10;;
9224;SDS011;4647;48.072;11.616;2022-11-15T01:28:46;5.07;;;3.83;;
9224;SDS011;4647;48.072;11.616;2022-11-15T01:31:14;4.30;;;3.60;;
9224;SDS011;4647;48.072;11.616;2022-11-15T01:33:42;4.70;;;4.20;;
9224;SDS011;4647;48.072;11.616;2022-11-15T01:36:12;5.43;;;3.63;;
9224;SDS011;4647;48.072;11.616;2022-11-15T01:38:40;4.20;;;3.53;;
9224;SDS011;4647;48.072;11.616;2022-11-15T01:41:12;4.90;;;4.00;;
9224;SDS011;4647;48.072;11.616;2022-11-15T01:43:41;4.83;;;4.00;;
9224;SDS011;4647;48.072;11.616;2022-11-15T01:46:13;5.87;;;3.80;;
9224;SDS011;4647;48.072;11.616;2022-11-15T01:48:49;8.63;;;4.10;;
9224;SDS011;4647;48.072;11.616;2022-11-15T01:51:20;4.50;;;3.97;;
9224;SDS011;4647;48.072;11.616;2022-11-15T01:53:49;5.47;;;3.73;;
9224;SDS011;4647;48.072;11.616;2022-11-15T01:56:21;4.20;;;3.80;;
9224;SDS011;4647;48.072;11.616;2022-11-15T01:58:51;4.10;;;3.70;;
9224;SDS011;4647;48.072;11.616;2022-11-15T02:01:21;5.03;;;3.60;;
9224;SDS011;4647;48.072;11.616;2022-11-15T02:03:53;4.57;;;4.10;;
9224;SDS011;4647;48.072;11.616;2022-11-15T02:06:24;4.17;;;3.70;;
9224;SDS011;4647;48.072;11.616;2022-11-15T02:08:51;5.20;;;4.10;;
9224;SDS011;4647;48.072;11.616;2022-11-15T02:11:19;4.97;;;3.70;;
9224;SDS011;4647;48.072;11.616;2022-11-15T02:13:45;3.90;;;3.47;;
9224;SDS011;4647;48.072;11.616;2022-11-15T02:16:13;4.63;;;4.13;;
9224;SDS011;4647;48.072;11.616;2022-11-15T02:18:47;6.53;;;3.93;;
9224;SDS011;4647;48.072;11.616;2022-11-15T02:21:20;4.00;;;3.57;;
9224;SDS011;4647;48.072;11.616;2022-11-15T02:33:00;5.57;;;3.60;;
9224;SDS011;4647;48.072;11.616;2022-11-15T02:35:34;4.43;;;3.40;;
9224;SDS011;4647;48.072;11.616;2022-11-15T02:38:16;3.53;;;3.13;;
9224;SDS011;4647;48.072;11.616;2022-11-15T02:40:49;4.50;;;3.63;;
9224;SDS011;4647;48.072;11.616;2022-11-15T02:43:21;3.47;;;3.17;;
9224;SDS011;4647;48.072;11.616;2022-11-15T02:46:14;5.40;;;3.50;;
9224;SDS011;4647;48.072;11.616;2022-11-15T02:48:46;5.17;;;3.40;;
9224;SDS011;4647;48.072;11.616;2022-11-15T02:51:14;3.83;;;3.17;;
9224;SDS011;4647;48.072;11.616;2022-11-15T02:53:42;3.50;;;3.13;;
9224;SDS011;4647;48.072;11.616;2022-11-15T02:56:09;5.07;;;3.57;;
9224;SDS011;4647;48.072;11.616;2022-11-15T02:58:57;4.07;;;3.30;;
9224;SDS011;4647;48.072;11.616;2022-11-15T03:01:41;3.47;;;3.00;;
9224;SDS011;4647;48.072;11.616;2022-11-15T03:04:23;3.67;;;3.27;;
9224;SDS011;4647;48.072;11.616;2022-11-15T03:07:01;5.50;;;3.63;;
9224;SDS011;4647;48.072;11.616;2022-11-15T03:09:34;3.23;;;2.93;;
9224;SDS011;4647;48.072;11.616;2022-11-15T03:12:06;3.63;;;3.20;;
9224;SDS011;4647;48.072;11.616;2022-11-15T03:14:40;3.47;;;3.17;;
9224;SDS011;4647;48.072;11.616;2022-11-15T03:17:18;5.07;;;3.63;;
9224;SDS011;4647;48.072;11.616;2022-11-15T03:19:49;3.73;;;3.30;;
9224;SDS011;4647;48.072;11.616;2022-11-15T03:22:20;2.93;;;2.70;;
9224;SDS011;4647;48.072;11.616;2022-11-15T03:24:52;3.57;;;3.27;;
9224;SDS011;4647;48.072;11.616;2022-11-15T03:27:21;3.93;;;2.97;;
9224;SDS011;4647;48.072;11.616;2022-11-15T03:29:51;7.13;;;3.10;;
9224;SDS011;4647;48.072;11.616;2022-11-15T03:32:23;4.87;;;3.20;;
9224;SDS011;4647;48.072;11.616;2022-11-15T03:34:53;3.37;;;3.03;;
9224;SDS011;4647;48.072;11.616;2022-11-15T03:37:25;3.37;;;3.03;;
9224;SDS011;4647;48.072;11.616;2022-11-15T03:39:56;3.40;;;3.10;;
9224;SDS011;4647;48.072;11.616;2022-11-15T03:42:24;4.03;;;3.30;;
9224;SDS011;4647;48.072;11.616;2022-11-15T03:44:58;4.00;;;3.50;;
9224;SDS011;4647;48.072;11.616;2022-11-15T03:47:30;4.03;;;3.20;;
9224;SDS011;4647;48.072;11.616;2022-11-15T03:50:03;4.00;;;3.40;;
9224;SDS011;4647;48.072;11.616;2022-11-15T03:52:34;4.27;;;3.30;;
9224;SDS011;4647;48.072;11.616;2022-11-15T03:55:02;4.27;;;3.53;;
9224;SDS011;4647;48.072;11.616;2022-11-15T03:57:32;4.60;;;3.70;;
9224;SDS011;4647;48.072;11.616;2022-11-15T03:59:59;4.73;;;3.77;;
9224;SDS011;4647;48.072;11.616;2022-11-15T04:02:26;4.47;;;3.70;;
9224;SDS011;4647;48.072;11.616;2022-11-15T04:04:54;4.00;;;3.00;;
9224;SDS011;4647;48.072;11.616;2022-11-15T04:07:21;4.10;;;3.20;;
9224;SDS011;4647;48.072;11.616;2022-11-15T04:09:48;3.20;;;2.90;;
9224;SDS011;4647;48.072;11.616;2022-11-15T04:12:30;6.07;;;3.13;;
9224;SDS011;4647;48.072;11.616;2022-11-15T04:15:01;5.20;;;3.20;;
9224;SDS011;4647;48.072;11.616;2022-11-15T04:17:34;4.40;;;3.37;;
9224;SDS011;4647;48.072;11.616;2022-11-15T04:20:03;4.93;;;3.37;;
9224;SDS011;4647;48.072;11.616;2022-11-15T04:22:48;3.80;;;3.40;;
9224;SDS011;4647;48.072;11.616;2022-11-15T04:25:35;3.50;;;3.00;;
9224;SDS011;4647;48.072;11.616;2022-11-15T04:28:02;3.60;;;3.10;;
9224;SDS011;4647;48.072;11.616;2022-11-15T04:30:29;3.23;;;2.73;;
9224;SDS011;4647;48.072;11.616;2022-11-15T04:32:56;3.60;;;3.07;;
9224;SDS011;4647;48.072;11.616;2022-11-15T04:35:24;4.30;;;3.67;;
9224;SDS011;4647;48.072;11.616;2022-11-15T04:37:51;4.43;;;3.30;;
9224;SDS011;4647;48.072;11.616;2022-11-15T04:40:18;4.53;;;3.40;;
9224;SDS011;4647;48.072;11.616;2022-11-15T04:42:45;3.23;;;2.93;;
9224;SDS011;4647;48.072;11.616;2022-11-15T04:45:12;3.77;;;3.17;;
9224;SDS011;4647;48.072;11.616;2022-11-15T04:47:39;4.57;;;3.50;;
9224;SDS011;4647;48.072;11.616;2022-11-15T04:50:06;3.90;;;3.30;;
9224;SDS011;4647;48.072;11.616;2022-11-15T04:52:34;3.93;;;3.00;;
9224;SDS011;4647;48.072;11.616;2022-11-15T04:55:01;4.03;;;3.30;;
9224;SDS011;4647;48.072;11.616;2022-11-15T04:57:28;4.93;;;3.43;;
9224;SDS011;4647;48.072;11.616;2022-11-15T04:59:55;3.90;;;3.10;;
9224;SDS011;4647;48.072;11.616;2022-11-15T05:02:22;4.70;;;3.37;;
9224;SDS011;4647;48.072;11.616;2022-11-15T05:04:49;6.93;;;3.13;;
9224;SDS011;4647;48.072;11.616;2022-11-15T05:07:15;3.60;;;3.00;;
9224;SDS011;4647;48.072;11.616;2022-11-15T05:09:43;3.77;;;3.40;;
9224;SDS011;4647;48.072;11.616;2022-11-15T05:12:10;8.13;;;2.93;;
9224;SDS011;4647;48.072;11.616;2022-11-15T05:14:36;3.93;;;3.00;;
9224;SDS011;4647;48.072;11.616;2022-11-15T05:17:03;3.73;;;3.23;;
9224;SDS011;4647;48.072;11.616;2022-11-15T05:19:30;3.20;;;2.90;;
9224;SDS011;4647;48.072;11.616;2022-11-15T05:21:57;4.87;;;3.00;;
9224;SDS011;4647;48.072;11.616;2022-11-15T05:24:23;3.13;;;2.83;;
9224;SDS011;4647;48.072;11.616;2022-11-15T05:26:52;3.80;;;3.30;;
9224;SDS011;4647;48.072;11.616;2022-11-15T05:29:19;7.10;;;3.50;;
9224;SDS011;4647;48.072;11.616;2022-11-15T05:31:45;3.60;;;3.00;;
9224;SDS011;4647;48.072;11.616;2022-11-15T05:34:12;5.37;;;3.20;;
9224;SDS011;4647;48.072;11.616;2022-11-15T05:36:41;4.67;;;3.30;;
9224;SDS011;4647;48.072;11.616;2022-11-15T05:39:09;19.40;;;8.17;;
9224;SDS011;4647;48.072;11.616;2022-11-15T05:41:37;4.93;;;3.80;;
9224;SDS011;4647;48.072;11.616;2022-11-15T05:44:11;5.13;;;3.20;;
9224;SDS011;4647;48.072;11.616;2022-11-15T05:46:41;3.47;;;3.10;;
9224;SDS011;4647;48.072;11.616;2022-11-15T05:49:09;3.90;;;2.80;;
9224;SDS011;4647;48.072;11.616;2022-11-15T05:51:39;3.73;;;2.97;;
9224;SDS011;4647;48.072;11.616;2022-11-15T05:54:09;3.10;;;2.80;;
9224;SDS011;4647;48.072;11.616;2022-11-15T05:56:37;3.23;;;2.93;;
9224;SDS011;4647;48.072;11.616;2022-11-15T05:59:04;4.83;;;3.80;;
9224;SDS011;4647;48.072;11.616;2022-11-15T06:01:34;3.20;;;2.90;;
9224;SDS011;4647;48.072;11.616;2022-11-15T06:04:01;4.57;;;3.43;;
9224;SDS011;4647;48.072;11.616;2022-11-15T06:06:28;4.23;;;3.20;;
9224;SDS011;4647;48.072;11.616;2022-11-15T06:08:55;7.67;;;3.50;;
9224;SDS011;4647;48.072;11.616;2022-11-15T06:11:22;13.20;;;4.20;;
9224;SDS011;4647;48.072;11.616;2022-11-15T06:13:49;11.73;;;4.20;;
9224;SDS011;4647;48.072;11.616;2022-11-15T06:16:16;6.37;;;4.33;;
9224;SDS011;4647;48.072;11.616;2022-11-15T06:18:44;7.70;;;4.30;;
9224;SDS011;4647;48.072;11.616;2022-11-15T06:21:11;5.73;;;3.27;;
9224;SDS011;4647;48.072;11.616;2022-11-15T06:23:37;4.10;;;3.70;;
9224;SDS011;4647;48.072;11.616;2022-11-15T06:26:05;5.57;;;4.20;;
9224;SDS011;4647;48.072;11.616;2022-11-15T06:28:32;3.77;;;3.37;;
9224;SDS011;4647;48.072;11.616;2022-11-15T06:31:02;4.43;;;3.47;;
9224;SDS011;4647;48.072;11.616;2022-11-15T06:33:29;7.50;;;3.80;;
9224;SDS011;4647;48.072;11.616;2022-11-15T06:36:00;13.37;;;4.33;;
9224;SDS011;4647;48.072;11.616;2022-11-15T06:38:27;9.23;;;4.10;;
9224;SDS011;4647;48.072;11.616;2022-11-15T06:40:54;6.80;;;4.03;;
9224;SDS011;4647;48.072;11.616;2022-11-15T06:43:26;10.20;;;4.83;;
9224;SDS011;4647;48.072;11.616;2022-11-15T06:45:53;8.93;;;3.70;;
9224;SDS011;4647;48.072;11.616;2022-11-15T06:48:20;5.53;;;3.10;;
9224;SDS011;4647;48.072;11.616;2022-11-15T06:50:50;4.13;;;3.73;;
9224;SDS011;4647;48.072;11.616;2022-11-15T06:53:19;5.10;;;3.57;;
9224;SDS011;4647;48.072;11.616;2022-11-15T06:55:46;9.10;;;3.63;;
9224;SDS011;4647;48.072;11.616;2022-11-15T06:58:13;7.37;;;3.67;;
9224;SDS011;4647;48.072;11.616;2022-11-15T07:00:40;4.87;;;3.93;;
9224;SDS011;4647;48.072;11.616;2022-11-15T07:03:07;3.40;;;3.00;;
9224;SDS011;4647;48.072;11.616;2022-11-15T07:05:34;5.50;;;3.87;;
9224;SDS011;4647;48.072;11.616;2022-11-15T07:08:02;6.03;;;3.57;;
9224;SDS011;4647;48.072;11.616;2022-11-15T07:10:30;3.60;;;3.27;;
9224;SDS011;4647;48.072;11.616;2022-11-15T07:12:57;7.60;;;3.77;;
9224;SDS011;4647;48.072;11.616;2022-11-15T07:15:24;6.40;;;4.07;;
9224;SDS011;4647;48.072;11.616;2022-11-15T07:17:52;8.07;;;4.20;;
9224;SDS011;4647;48.072;11.616;2022-11-15T07:20:18;7.97;;;4.10;;
9224;SDS011;4647;48.072;11.616;2022-11-15T07:22:45;7.17;;;3.80;;
9224;SDS011;4647;48.072;11.616;2022-11-15T07:25:12;4.17;;;3.30;;
9224;SDS011;4647;48.072;11.616;2022-11-15T07:27:40;3.80;;;3.40;;
9224;SDS011;4647;48.072;11.616;2022-11-15T07:30:08;7.53;;;3.63;;
9224;SDS011;4647;48.072;11.616;2022-11-15T07:32:35;7.20;;;3.83;;
9224;SDS011;4647;48.072;11.616;2022-11-15T07:35:02;5.43;;;3.70;;
9224;SDS011;4647;48.072;11.616;2022-11-15T07:37:29;4.40;;;2.97;;
9224;SDS011;4647;48.072;11.616;2022-11-15T07:39:56;5.87;;;3.67;;
9224;SDS011;4647;48.072;11.616;2022-11-15T07:42:23;8.87;;;3.37;;
9224;SDS011;4647;48.072;11.616;2022-11-15T07:45:09;7.43;;;4.00;;
9224;SDS011;4647;48.072;11.616;2022-11-15T07:47:36;10.63;;;3.90;;
9224;SDS011;4647;48.072;11.616;2022-11-15T07:50:02;5.47;;;3.20;;
9224;SDS011;4647;48.072;11.616;2022-11-15T07:52:30;5.00;;;3.47;;
9224;SDS011;4647;48.072;11.616;2022-11-15T07:54:57;5.80;;;3.90;;
9224;SDS011;4647;48.072;11.616;2022-11-15T07:57:23;5.80;;;3.67;;
9224;SDS011;4647;48.072;11.616;2022-11-15T07:59:51;10.53;;;3.97;;
9224;SDS011;4647;48.072;11.616;2022-11-15T08:02:19;6.97;;;4.23;;
9224;SDS011;4647;48.072;11.616;2022-11-15T08:04:46;5.10;;;3.23;;
9224;SDS011;4647;48.072;11.616;2022-11-15T08:07:13;4.37;;;3.07;;
9224;SDS011;4647;48.072;11.616;2022-11-15T08:09:39;4.83;;;2.80;;
9224;SDS011;4647;48.072;11.616;2022-11-15T08:12:06;5.27;;;2.73;;
9224;SDS011;4647;48.072;11.616;2022-11-15T08:14:34;4.10;;;2.80;;
9224;SDS011;4647;48.072;11.616;2022-11-15T08:17:01;7.70;;;2.90;;
9224;SDS011;4647;48.072;11.616;2022-11-15T08:19:29;6.33;;;3.13;;
9224;SDS011;4647;48.072;11.616;2022-11-15T08:21:56;12.27;;;3.33;;
9224;SDS011;4647;48.072;11.616;2022-11-15T08:24:23;7.60;;;3.13;;
9224;SDS011;4647;48.072;11.616;2022-11-15T08:26:50;4.67;;;3.10;;
9224;SDS011;4647;48.072;11.616;2022-11-15T08:29:16;10.37;;;3.10;;
9224;SDS011;4647;48.072;11.616;2022-11-15T08:31:43;8.43;;;3.60;;
9224;SDS011;4647;48.072;11.616;2022-11-15T08:34:10;8.73;;;3.50;;
9224;SDS011;4647;48.072;11.616;2022-11-15T08:36:38;8.17;;;4.20;;
9224;SDS011;4647;48.072;11.616;2022-11-15T08:39:05;4.57;;;3.63;;
9224;SDS011;4647;48.072;11.616;2022-11-15T08:41:33;16.47;;;4.03;;
9224;SDS011;4647;48.072;11.616;2022-11-15T08:44:02;9.00;;;4.23;;
9224;SDS011;4647;48.072;11.616;2022-11-15T08:46:29;8.70;;;4.30;;
9224;SDS011;4647;48.072;11.616;2022-11-15T08:48:56;7.50;;;3.43;;
9224;SDS011;4647;48.072;11.616;2022-11-15T08:51:23;6.27;;;3.73;;
9224;SDS011;4647;48.072;11.616;2022-11-15T08:53:51;11.27;;;4.07;;
9224;SDS011;4647;48.072;11.616;2022-11-15T08:56:17;8.67;;;3.40;;
9224;SDS011;4647;48.072;11.616;2022-11-15T08:58:44;4.70;;;3.63;;
9224;SDS011;4647;48.072;11.616;2022-11-15T09:01:15;9.30;;;3.60;;
9224;SDS011;4647;48.072;11.616;2022-11-15T09:03:43;8.70;;;3.40;;
9224;SDS011;4647;48.072;11.616;2022-11-15T09:06:10;9.03;;;3.37;;
9224;SDS011;4647;48.072;11.616;2022-11-15T09:08:37;4.63;;;2.93;;
9224;SDS011;4647;48.072;11.616;2022-11-15T09:11:05;8.90;;;3.70;;
9224;SDS011;4647;48.072;11.616;2022-11-15T09:13:33;6.77;;;3.43;;
9224;SDS011;4647;48.072;11.616;2022-11-15T09:16:02;4.80;;;3.43;;
9224;SDS011;4647;48.072;11.616;2022-11-15T09:18:30;8.90;;;3.80;;
9224;SDS011;4647;48.072;11.616;2022-11-15T09:20:57;4.03;;;3.30;;
9224;SDS011;4647;48.072;11.616;2022-11-15T09:23:24;6.00;;;3.23;;
9224;SDS011;4647;48.072;11.616;2022-11-15T09:25:51;4.83;;;3.10;;
9224;SDS011;4647;48.072;11.616;2022-11-15T09:28:25;5.80;;;3.47;;
9224;SDS011;4647;48.072;11.616;2022-11-15T09:30:55;8.33;;;2.97;;
9224;SDS011;4647;48.072;11.616;2022-11-15T09:33:22;5.40;;;2.97;;
9224;SDS011;4647;48.072;11.616;2022-11-15T09:35:49;5.33;;;2.90;;
9224;SDS011;4647;48.072;11.616;2022-11-15T09:38:16;7.20;;;2.33;;
9224;SDS011;4647;48.072;11.616;2022-11-15T09:40:43;4.27;;;2.80;;
9224;SDS011;4647;48.072;11.616;2022-11-15T09:43:21;7.73;;;3.20;;
9224;SDS011;4647;48.072;11.616;2022-11-15T09:46:01;6.00;;;3.10;;
9224;SDS011;4647;48.072;11.616;2022-11-15T09:48:43;2.97;;;2.47;;
9224;SDS011;4647;48.072;11.616;2022-11-15T09:51:23;4.43;;;2.93;;
9224;SDS011;4647;48.072;11.616;2022-11-15T09:53:56;4.77;;;2.97;;
9224;SDS011;4647;48.072;11.616;2022-11-15T09:56:29;6.40;;;3.17;;
9224;SDS011;4647;48.072;11.616;2022-11-15T09:59:01;3.67;;;2.97;;
9224;SDS011;4647;48.072;11.616;2022-11-15T10:01:41;5.43;;;2.93;;
9224;SDS011;4647;48.072;11.616;2022-11-15T10:04:14;5.00;;;3.40;;
9224;SDS011;4647;48.072;11.616;2022-11-15T10:06:42;4.80;;;3.90;;
9224;SDS011;4647;48.072;11.616;2022-11-15T10:09:13;4.33;;;3.40;;
9224;SDS011;4647;48.072;11.616;2022-11-15T10:11:45;6.53;;;2.73;;
9224;SDS011;4647;48.072;11.616;2022-11-15T10:14:14;7.77;;;2.57;;
9224;SDS011;4647;48.072;11.616;2022-11-15T10:16:52;3.20;;;2.27;;
9224;SDS011;4647;48.072;11.616;2022-11-15T10:19:35;5.40;;;2.50;;
9224;SDS011;4647;48.072;11.616;2022-11-15T10:22:14;5.93;;;2.50;;
9224;SDS011;4647;48.072;11.616;2022-11-15T10:25:00;5.17;;;2.57;;
9224;SDS011;4647;48.072;11.616;2022-11-15T10:27:38;5.23;;;2.50;;
9224;SDS011;4647;48.072;11.616;2022-11-15T10:30:10;6.30;;;2.50;;
9224;SDS011;4647;48.072;11.616;2022-11-15T10:32:39;4.03;;;2.57;;
9224;SDS011;4647;48.072;11.616;2022-11-15T10:35:19;4.33;;;2.50;;
9224;SDS011;4647;48.072;11.616;2022-11-15T10:37:49;9.10;;;2.60;;
9224;SDS011;4647;48.072;11.616;2022-11-15T10:40:20;6.73;;;2.40;;
9224;SDS011;4647;48.072;11.616;2022-11-15T10:42:48;4.27;;;2.10;;
9224;SDS011;4647;48.072;11.616;2022-11-15T10:45:32;3.27;;;2.30;;
9224;SDS011;4647;48.072;11.616;2022-11-15T10:48:18;3.40;;;2.00;;
9224;SDS011;4647;48.072;11.616;2022-11-15T10:50:47;3.13;;;2.03;;
9224;SDS011;4647;48.072;11.616;2022-11-15T10:53:17;4.67;;;2.63;;
9224;SDS011;4647;48.072;11.616;2022-11-15T10:55:53;6.33;;;2.97;;
9224;SDS011;4647;48.072;11.616;2022-11-15T10:58:27;5.60;;;2.90;;
9224;SDS011;4647;48.072;11.616;2022-11-15T11:01:09;3.23;;;2.20;;
9224;SDS011;4647;48.072;11.616;2022-11-15T11:03:38;3.73;;;2.20;;
9224;SDS011;4647;48.072;11.616;2022-11-15T11:06:08;3.63;;;2.20;;
9224;SDS011;4647;48.072;11.616;2022-11-15T11:08:36;3.83;;;2.40;;
9224;SDS011;4647;48.072;11.616;2022-11-15T11:11:04;4.13;;;2.67;;
9224;SDS011;4647;48.072;11.616;2022-11-15T11:13:33;3.60;;;2.20;;
9224;SDS011;4647;48.072;11.616;2022-11-15T11:19:04;3.10;;;2.20;;
9224;SDS011;4647;48.072;11.616;2022-11-15T11:21:44;5.20;;;2.00;;
9224;SDS011;4647;48.072;11.616;2022-11-15T11:24:19;2.93;;;1.83;;
9224;SDS011;4647;48.072;11.616;2022-11-15T11:26:59;2.30;;;2.10;;
9224;SDS011;4647;48.072;11.616;2022-11-15T11:29:44;4.47;;;2.27;;
9224;SDS011;4647;48.072;11.616;2022-11-15T11:32:27;3.13;;;1.93;;
9224;SDS011;4647;48.072;11.616;2022-11-15T11:35:08;2.47;;;2.00;;
9224;SDS011;4647;48.072;11.616;2022-11-15T11:37:43;4.57;;;2.10;;
9224;SDS011;4647;48.072;11.616;2022-11-15T11:40:18;2.00;;;1.80;;
9224;SDS011;4647;48.072;11.616;2022-11-15T11:42:54;2.73;;;2.00;;
9224;SDS011;4647;48.072;11.616;2022-11-15T11:48:20;2.77;;;1.97;;
9224;SDS011;4647;48.072;11.616;2022-11-15T11:50:59;2.43;;;2.00;;
9224;SDS011;4647;48.072;11.616;2022-11-15T11:53:31;4.33;;;2.20;;
9224;SDS011;4647;48.072;11.616;2022-11-15T11:56:04;2.00;;;1.80;;
9224;SDS011;4647;48.072;11.616;2022-11-15T11:58:40;3.00;;;2.10;;
9224;SDS011;4647;48.072;11.616;2022-11-15T12:01:12;5.50;;;2.00;;
9224;SDS011;4647;48.072;11.616;2022-11-15T12:03:45;2.13;;;1.93;;
9224;SDS011;4647;48.072;11.616;2022-11-15T12:06:17;2.57;;;2.30;;
9224;SDS011;4647;48.072;11.616;2022-11-15T12:08:50;2.83;;;2.13;;
9224;SDS011;4647;48.072;11.616;2022-11-15T12:11:23;2.17;;;1.93;;
9224;SDS011;4647;48.072;11.616;2022-11-15T12:13:56;2.60;;;2.40;;
9224;SDS011;4647;48.072;11.616;2022-11-15T12:16:26;3.67;;;2.50;;
9224;SDS011;4647;48.072;11.616;2022-11-15T12:18:56;2.27;;;2.07;;
9224;SDS011;4647;48.072;11.616;2022-11-15T12:21:29;3.33;;;2.53;;
9224;SDS011;4647;48.072;11.616;2022-11-15T12:24:03;3.03;;;2.07;;
9224;SDS011;4647;48.072;11.616;2022-11-15T12:26:35;2.90;;;2.30;;
9224;SDS011;4647;48.072;11.616;2022-11-15T12:29:06;2.20;;;2.00;;
9224;SDS011;4647;48.072;11.616;2022-11-15T12:31:41;3.97;;;2.20;;
9224;SDS011;4647;48.072;11.616;2022-11-15T12:34:31;4.47;;;2.30;;
9224;SDS011;4647;48.072;11.616;2022-11-15T12:40:03;4.30;;;2.03;;
9224;SDS011;4647;48.072;11.616;2022-11-15T12:43:02;3.80;;;2.13;;
9224;SDS011;4647;48.072;11.616;2022-11-15T12:45:32;5.17;;;2.37;;
9224;SDS011;4647;48.072;11.616;2022-11-15T12:51:05;3.47;;;2.10;;
9224;SDS011;4647;48.072;11.616;2022-11-15T12:53:33;6.60;;;2.03;;
9224;SDS011;4647;48.072;11.616;2022-11-15T12:56:17;2.57;;;2.10;;
9224;SDS011;4647;48.072;11.616;2022-11-15T12:58:50;6.00;;;2.10;;
9224;SDS011;4647;48.072;11.616;2022-11-15T13:04:23;2.93;;;2.23;;
9224;SDS011;4647;48.072;11.616;2022-11-15T13:06:55;4.27;;;2.20;;
9224;SDS011;4647;48.072;11.616;2022-11-15T13:15:35;2.47;;;1.70;;
9224;SDS011;4647;48.072;11.616;2022-11-15T13:18:32;2.10;;;1.80;;
9224;SDS011;4647;48.072;11.616;2022-11-15T13:21:04;1.87;;;1.77;;
9224;SDS011;4647;48.072;11.616;2022-11-15T13:24:04;2.20;;;1.80;;
9224;SDS011;4647;48.072;11.616;2022-11-15T13:26:37;3.10;;;1.80;;
9224;SDS011;4647;48.072;11.616;2022-11-15T13:29:12;2.03;;;1.83;;
9224;SDS011;4647;48.072;11.616;2022-11-15T13:31:42;4.00;;;2.23;;
9224;SDS011;4647;48.072;11.616;2022-11-15T13:34:17;3.87;;;1.90;;
9224;SDS011;4647;48.072;11.616;2022-11-15T13:36:50;2.20;;;1.83;;
9224;SDS011;4647;48.072;11.616;2022-11-15T13:39:25;2.33;;;1.80;;
9224;SDS011;4647;48.072;11.616;2022-11-15T13:41:53;2.07;;;1.87;;
9224;SDS011;4647;48.072;11.616;2022-11-15T13:44:21;4.47;;;2.00;;
9224;SDS011;4647;48.072;11.616;2022-11-15T13:46:59;1.73;;;1.63;;
9224;SDS011;4647;48.072;11.616;2022-11-15T13:49:29;2.40;;;1.80;;
9224;SDS011;4647;48.072;11.616;2022-11-15T13:51:57;2.03;;;1.83;;
9224;SDS011;4647;48.072;11.616;2022-11-15T13:54:28;2.70;;;1.90;;
9224;SDS011;4647;48.072;11.616;2022-11-15T13:56:58;3.10;;;1.80;;
9224;SDS011;4647;48.072;11.616;2022-11-15T13:59:28;2.57;;;1.90;;
9224;SDS011;4647;48.072;11.616;2022-11-15T14:01:58;3.10;;;2.17;;
9224;SDS011;4647;48.072;11.616;2022-11-15T14:04:28;2.80;;;2.40;;
9224;SDS011;4647;48.072;11.616;2022-11-15T14:06:59;4.50;;;2.20;;
9224;SDS011;4647;48.072;11.616;2022-11-15T14:09:35;8.73;;;2.60;;
9224;SDS011;4647;48.072;11.616;2022-11-15T14:14:50;2.30;;;2.10;;
9224;SDS011;4647;48.072;11.616;2022-11-15T14:17:19;3.27;;;2.27;;
9224;SDS011;4647;48.072;11.616;2022-11-15T14:19:48;4.10;;;2.10;;
9224;SDS011;4647;48.072;11.616;2022-11-15T14:22:18;3.37;;;2.30;;
9224;SDS011;4647;48.072;11.616;2022-11-15T14:25:03;3.60;;;2.50;;
9224;SDS011;4647;48.072;11.616;2022-11-15T14:27:40;2.27;;;2.07;;
9224;SDS011;4647;48.072;11.616;2022-11-15T14:30:12;5.57;;;2.90;;
9224;SDS011;4647;48.072;11.616;2022-11-15T14:32:42;3.83;;;2.50;;
9224;SDS011;4647;48.072;11.616;2022-11-15T14:35:12;4.67;;;2.67;;
9224;SDS011;4647;48.072;11.616;2022-11-15T14:37:42;3.07;;;2.50;;
9224;SDS011;4647;48.072;11.616;2022-11-15T14:40:13;2.77;;;2.33;;
9224;SDS011;4647;48.072;11.616;2022-11-15T14:42:41;2.57;;;2.37;;
9224;SDS011;4647;48.072;11.616;2022-11-15T14:45:10;3.83;;;2.47;;
9224;SDS011;4647;48.072;11.616;2022-11-15T14:47:39;3.23;;;2.23;;
9224;SDS011;4647;48.072;11.616;2022-11-15T14:50:06;2.73;;;2.27;;
9224;SDS011;4647;48.072;11.616;2022-11-15T14:52:37;2.87;;;2.40;;
9224;SDS011;4647;48.072;11.616;2022-11-15T14:55:11;3.27;;;2.60;;
9224;SDS011;4647;48.072;11.616;2022-11-15T14:57:44;3.80;;;2.40;;
9224;SDS011;4647;48.072;11.616;2022-11-15T15:00:12;3.60;;;2.10;;
9224;SDS011;4647;48.072;11.616;2022-11-15T15:02:40;3.40;;;2.10;;
9224;SDS011;4647;48.072;11.616;2022-11-15T15:05:12;2.77;;;2.30;;
9224;SDS011;4647;48.072;11.616;2022-11-15T15:07:41;5.73;;;2.30;;
9224;SDS011;4647;48.072;11.616;2022-11-15T15:10:08;3.00;;;2.13;;
9224;SDS011;4647;48.072;11.616;2022-11-15T15:12:36;3.70;;;2.60;;
9224;SDS011;4647;48.072;11.616;2022-11-15T15:15:04;4.30;;;2.70;;
9224;SDS011;4647;48.072;11.616;2022-11-15T15:17:31;3.07;;;2.33;;
9224;SDS011;4647;48.072;11.616;2022-11-15T15:19:58;5.63;;;3.80;;
9224;SDS011;4647;48.072;11.616;2022-11-15T15:22:25;7.03;;;4.67;;
9224;SDS011;4647;48.072;11.616;2022-11-15T15:24:55;3.50;;;2.73;;
9224;SDS011;4647;48.072;11.616;2022-11-15T15:27:22;3.57;;;2.80;;
9224;SDS011;4647;48.072;11.616;2022-11-15T15:29:50;10.17;;;3.00;;
9224;SDS011;4647;48.072;11.616;2022-11-15T15:32:17;6.17;;;3.27;;
9224;SDS011;4647;48.072;11.616;2022-11-15T15:34:44;3.43;;;3.00;;
9224;SDS011;4647;48.072;11.616;2022-11-15T15:39:58;4.77;;;3.30;;
9224;SDS011;4647;48.072;11.616;2022-11-15T15:42:25;4.73;;;2.90;;
9224;SDS011;4647;48.072;11.616;2022-11-15T15:44:53;4.37;;;3.03;;
9224;SDS011;4647;48.072;11.616;2022-11-15T15:47:20;7.33;;;3.23;;
9224;SDS011;4647;48.072;11.616;2022-11-15T15:49:48;4.67;;;3.60;;
9224;SDS011;4647;48.072;11.616;2022-11-15T15:52:16;5.83;;;3.90;;
9224;SDS011;4647;48.072;11.616;2022-11-15T15:54:44;8.23;;;4.37;;